Time;durP1;ratioP1;P1;durP2;ratioP2;P2;SDS_P1;SDS_P2;PMS_P1;PMS_P2;Temp;Humidity;BMP_temperature;BMP_pressure;BME280_temperature;BME280_humidity;BME280_pressure;Samples;Min_cycle;Max_cycle;Signal;HPM_P1;HPM_P2
2021/07/03 00:00:45;;;;;;;2.58;2.40;;;25.10;38.10;;;;;;4971797;28;20236;-48
2021/07/03 00:03:11;;;;;;;2.45;2.25;;;25.10;38.10;;;;;;4971048;28;20224;-46
2021/07/03 00:05:38;;;;;;;2.42;2.22;;;25.10;38.10;;;;;;4971562;28;20649;-47
2021/07/03 00:08:04;;;;;;;2.50;2.30;;;25.10;38.10;;;;;;4971154;28;20561;-44
2021/07/03 00:10:31;;;;;;;2.88;2.67;;;25.10;38.10;;;;;;4959130;28;20295;-46
2021/07/03 00:12:57;;;;;;;2.42;2.22;;;25.10;38.20;;;;;;4968597;28;20250;-49
2021/07/03 00:15:24;;;;;;;2.50;2.30;;;25.10;38.20;;;;;;4971327;28;20227;-45
2021/07/03 00:17:50;;;;;;;2.45;2.25;;;25.10;38.10;;;;;;4971132;28;20291;-47
2021/07/03 00:20:16;;;;;;;2.65;2.45;;;25.10;38.20;;;;;;4972048;28;20384;-53
2021/07/03 00:22:43;;;;;;;2.40;2.20;;;25.00;38.10;;;;;;4971221;28;20319;-47
2021/07/03 00:25:09;;;;;;;2.35;2.15;;;25.00;38.10;;;;;;4971861;28;20207;-50
2021/07/03 00:27:36;;;;;;;2.53;2.33;;;25.10;38.10;;;;;;4971964;28;20209;-53
2021/07/03 00:30:02;;;;;;;2.80;2.60;;;25.10;38.20;;;;;;4970980;28;20727;-51
2021/07/03 00:32:29;;;;;;;2.58;2.38;;;25.10;38.10;;;;;;4960181;28;20237;-46
2021/07/03 00:34:56;;;;;;;2.55;2.35;;;25.00;38.10;;;;;;4964721;28;20667;-45
2021/07/03 00:37:22;;;;;;;3.55;2.40;;;25.10;38.10;;;;;;4975089;28;20208;-46
2021/07/03 00:39:49;;;;;;;2.70;2.50;;;25.00;38.10;;;;;;4971140;28;20202;-50
2021/07/03 00:42:16;;;;;;;3.10;2.17;;;25.00;38.10;;;;;;4956091;28;20243;-52
2021/07/03 00:44:42;;;;;;;2.60;2.40;;;25.10;38.20;;;;;;4962525;28;20300;-48
2021/07/03 00:47:09;;;;;;;2.65;2.45;;;25.10;38.20;;;;;;4975377;28;20204;-49
2021/07/03 00:49:35;;;;;;;2.60;2.40;;;25.10;38.20;;;;;;4974691;28;20208;-51
2021/07/03 00:52:02;;;;;;;2.63;2.42;;;25.00;38.10;;;;;;4974760;28;20220;-52
2021/07/03 00:54:28;;;;;;;2.50;2.30;;;25.00;38.10;;;;;;4974558;28;20299;-50
2021/07/03 00:57:02;;;;;;;2.47;2.28;;;25.10;38.20;;;;;;4975095;28;20205;-45
2021/07/03 00:59:28;;;;;;;2.40;2.20;;;25.00;38.20;;;;;;4974808;28;20208;-54
2021/07/03 01:01:55;;;;;;;2.50;2.30;;;25.10;38.20;;;;;;4974812;28;20240;-49
2021/07/03 01:04:21;;;;;;;2.78;2.30;;;25.00;38.20;;;;;;4974290;28;20217;-49
2021/07/03 01:06:48;;;;;;;2.85;2.65;;;25.00;38.20;;;;;;4974755;28;20231;-47
2021/07/03 01:09:14;;;;;;;2.75;2.40;;;25.00;38.20;;;;;;4974035;28;20235;-52
2021/07/03 01:11:41;;;;;;;2.55;2.35;;;25.00;38.20;;;;;;4965866;28;20231;-48
2021/07/03 01:14:07;;;;;;;2.70;2.50;;;25.00;38.20;;;;;;4974114;28;20205;-50
2021/07/03 01:16:34;;;;;;;2.20;2.00;;;25.00;38.20;;;;;;4957656;28;20225;-44
2021/07/03 01:19:00;;;;;;;2.35;2.15;;;25.00;38.20;;;;;;4967796;28;20267;-49
2021/07/03 01:21:27;;;;;;;2.50;2.30;;;25.00;38.20;;;;;;4974072;28;20234;-47
2021/07/03 01:23:53;;;;;;;2.58;2.38;;;25.00;38.20;;;;;;4974207;28;20295;-49
2021/07/03 01:26:19;;;;;;;2.95;2.70;;;25.00;38.20;;;;;;4974890;28;20295;-49
2021/07/03 01:28:46;;;;;;;2.28;2.08;;;25.00;38.20;;;;;;4973066;28;20209;-52
2021/07/03 01:31:12;;;;;;;2.67;2.47;;;25.00;38.20;;;;;;4959750;28;20809;-46
2021/07/03 01:33:39;;;;;;;2.75;2.30;;;25.00;38.20;;;;;;4970013;28;20637;-50
2021/07/03 01:36:05;;;;;;;2.47;2.30;;;25.00;38.20;;;;;;4974359;28;20295;-46
2021/07/03 01:38:32;;;;;;;3.10;2.50;;;25.00;38.30;;;;;;4973507;28;20204;-47
2021/07/03 01:40:58;;;;;;;2.47;2.28;;;25.00;38.30;;;;;;4973696;28;20201;-53
2021/07/03 01:43:25;;;;;;;2.42;2.22;;;25.00;38.20;;;;;;4973894;28;20702;-47
2021/07/03 01:45:51;;;;;;;2.55;2.25;;;25.00;38.20;;;;;;4973681;28;20209;-46
2021/07/03 01:48:18;;;;;;;2.42;2.22;;;25.00;38.30;;;;;;4973725;28;20197;-47
2021/07/03 01:50:44;;;;;;;2.50;2.30;;;25.00;38.30;;;;;;4973560;28;20200;-53
2021/07/03 01:53:11;;;;;;;2.55;2.35;;;25.00;38.30;;;;;;4973277;28;20221;-47
2021/07/03 01:55:37;;;;;;;2.97;2.20;;;25.00;38.30;;;;;;4974142;28;20288;-50
2021/07/03 01:58:03;;;;;;;2.58;2.38;;;25.00;38.30;;;;;;4973785;28;20200;-47
2021/07/03 02:00:30;;;;;;;2.40;2.20;;;25.00;38.30;;;;;;4973681;28;20202;-47
2021/07/03 02:02:56;;;;;;;2.22;2.13;;;25.00;38.90;;;;;;4961405;28;20702;-44
2021/07/03 02:05:23;;;;;;;2.60;2.40;;;25.00;38.30;;;;;;4974142;28;20216;-44
2021/07/03 02:07:50;;;;;;;2.60;2.40;;;25.00;38.30;;;;;;4953616;28;20288;-52
2021/07/03 02:10:16;;;;;;;2.85;2.60;;;25.00;38.30;;;;;;4965656;28;20200;-49
2021/07/03 02:12:42;;;;;;;2.53;2.33;;;25.00;38.30;;;;;;4972649;28;20220;-46
2021/07/03 02:15:09;;;;;;;2.58;2.15;;;25.00;38.30;;;;;;4973436;28;20671;-44
2021/07/03 02:17:35;;;;;;;2.58;2.38;;;25.00;38.30;;;;;;4973137;28;20561;-47
2021/07/03 02:20:02;;;;;;;2.33;2.15;;;25.00;38.30;;;;;;4973513;28;20227;-44
2021/07/03 02:22:29;;;;;;;2.40;2.20;;;25.00;38.30;;;;;;4959029;28;20671;-45
2021/07/03 02:24:55;;;;;;;2.05;1.95;;;25.00;38.30;;;;;;4953561;29;20669;-45
2021/07/03 02:27:22;;;;;;;2.33;2.20;;;25.00;38.30;;;;;;4968690;28;20245;-47
2021/07/03 02:29:48;;;;;;;2.50;2.30;;;25.00;38.40;;;;;;4972786;28;20204;-48
2021/07/03 02:32:14;;;;;;;2.45;2.25;;;25.00;38.40;;;;;;4972489;28;20231;-51
2021/07/03 02:34:41;;;;;;;2.22;2.10;;;25.00;38.40;;;;;;4965638;28;20841;-54
2021/07/03 02:37:07;;;;;;;2.75;2.53;;;25.00;38.40;;;;;;4964735;28;20205;-48
2021/07/03 02:39:34;;;;;;;2.03;1.92;;;25.00;38.40;;;;;;4972977;28;20211;-50
2021/07/03 02:42:00;;;;;;;2.50;2.30;;;25.00;38.40;;;;;;4972583;28;20232;-51
2021/07/03 02:44:27;;;;;;;2.65;2.30;;;25.00;38.40;;;;;;4972330;28;20239;-48
2021/07/03 02:46:53;;;;;;;2.60;2.40;;;25.00;38.40;;;;;;4972460;28;20307;-51
2021/07/03 02:49:22;;;;;;;2.50;2.30;;;25.00;38.40;;;;;;4973264;28;20355;-54
2021/07/03 02:51:48;;;;;;;2.40;2.20;;;25.00;38.40;;;;;;4964408;28;20723;-49
2021/07/03 02:54:15;;;;;;;2.70;2.50;;;25.00;38.40;;;;;;4972192;28;20652;-46
2021/07/03 02:56:41;;;;;;;2.40;2.20;;;25.00;38.40;;;;;;4971913;28;20570;-46
2021/07/03 02:59:08;;;;;;;2.30;2.20;;;25.00;38.40;;;;;;4972299;28;20771;-48
2021/07/03 03:01:34;;;;;;;2.70;2.50;;;25.00;38.40;;;;;;4966043;28;20727;-45
2021/07/03 03:04:01;;;;;;;2.92;2.72;;;25.00;38.40;;;;;;4969563;28;20303;-50
2021/07/03 03:06:27;;;;;;;2.70;2.45;;;25.00;38.50;;;;;;4964926;28;20291;-45
2021/07/03 03:08:54;;;;;;;2.60;2.40;;;25.00;38.50;;;;;;4971031;28;20208;-48
2021/07/03 03:11:20;;;;;;;2.40;2.20;;;25.00;38.50;;;;;;4966311;28;20230;-48
2021/07/03 03:13:46;;;;;;;3.08;2.22;;;25.00;38.50;;;;;;4972104;28;20207;-46
2021/07/03 03:16:13;;;;;;;2.70;2.40;;;25.00;38.50;;;;;;4972101;28;20703;-45
2021/07/03 03:18:40;;;;;;;2.30;2.10;;;25.00;38.50;;;;;;4970265;28;20283;-45
2021/07/03 03:21:06;;;;;;;3.08;2.78;;;25.00;38.50;;;;;;4955630;28;20231;-47
2021/07/03 03:23:33;;;;;;;2.47;2.28;;;25.00;38.50;;;;;;4971799;28;20232;-49
2021/07/03 03:25:59;;;;;;;2.60;2.40;;;25.00;38.50;;;;;;4972263;28;20549;-52
2021/07/03 03:28:26;;;;;;;2.40;2.20;;;25.00;38.50;;;;;;4972248;28;20679;-44
2021/07/03 03:30:52;;;;;;;2.13;1.95;;;25.00;38.50;;;;;;4972280;28;20312;-44
2021/07/03 03:33:19;;;;;;;2.30;2.20;;;25.00;38.60;;;;;;4971184;28;20204;-50
2021/07/03 03:35:45;;;;;;;2.80;2.60;;;25.00;38.50;;;;;;4959177;28;20209;-46
2021/07/03 03:38:11;;;;;;;2.17;2.08;;;25.00;38.60;;;;;;4972127;28;20669;-48
2021/07/03 03:40:39;;;;;;;2.50;2.30;;;25.00;38.50;;;;;;4972352;28;20605;-47
2021/07/03 03:43:06;;;;;;;2.47;2.28;;;25.00;38.60;;;;;;4971467;28;20239;-47
2021/07/03 03:45:32;;;;;;;2.70;2.50;;;25.00;38.60;;;;;;4972450;28;20212;-48
2021/07/03 03:47:59;;;;;;;2.55;2.35;;;25.00;38.70;;;;;;4972530;28;20200;-48
2021/07/03 03:50:25;;;;;;;2.85;2.58;;;25.00;38.70;;;;;;4972225;28;20293;-49
2021/07/03 03:52:52;;;;;;;2.40;2.20;;;25.00;38.70;;;;;;4971160;28;20673;-44
2021/07/03 03:55:18;;;;;;;2.78;2.40;;;25.00;38.70;;;;;;4971992;28;20643;-52
2021/07/03 03:57:45;;;;;;;2.50;2.40;;;25.00;38.70;;;;;;4972280;28;20212;-50
2021/07/03 04:00:11;;;;;;;2.47;2.25;;;25.00;38.80;;;;;;4972277;28;20200;-46
2021/07/03 04:02:38;;;;;;;2.42;2.10;;;25.00;38.80;;;;;;4963191;28;20319;-46
2021/07/03 04:05:04;;;;;;;2.72;2.50;;;25.00;38.80;;;;;;4971250;28;20197;-49
2021/07/03 04:07:31;;;;;;;2.28;2.10;;;25.00;38.70;;;;;;4971733;28;20291;-43
2021/07/03 04:09:57;;;;;;;2.60;2.38;;;25.00;38.80;;;;;;4975148;28;20288;-44
2021/07/03 04:12:24;;;;;;;2.53;2.20;;;25.00;38.80;;;;;;4975240;28;20230;-43
2021/07/03 04:14:50;;;;;;;2.40;2.20;;;25.00;38.80;;;;;;4956779;28;20566;-44
2021/07/03 04:17:17;;;;;;;2.25;2.05;;;25.00;38.80;;;;;;4969412;28;20626;-43
2021/07/03 04:19:43;;;;;;;2.00;1.90;;;25.00;38.80;;;;;;4975809;28;20234;-44
2021/07/03 04:22:10;;;;;;;2.65;2.45;;;25.00;38.80;;;;;;4970509;28;20225;-46
2021/07/03 04:24:36;;;;;;;2.50;2.30;;;25.00;38.80;;;;;;4975052;28;20201;-46
2021/07/03 04:27:03;;;;;;;2.50;2.30;;;25.00;38.80;;;;;;4975754;28;20295;-44
2021/07/03 04:29:29;;;;;;;2.47;2.28;;;25.00;38.90;;;;;;4975914;28;20200;-48
2021/07/03 04:31:55;;;;;;;2.78;2.28;;;25.00;38.90;;;;;;4974967;28;20269;-44
2021/07/03 04:34:22;;;;;;;2.20;2.10;;;25.00;38.90;;;;;;4964842;28;20207;-44
2021/07/03 04:36:48;;;;;;;2.38;2.17;;;25.00;38.90;;;;;;4970433;28;20211;-44
2021/07/03 04:39:15;;;;;;;2.60;2.40;;;25.00;38.90;;;;;;4975298;28;20208;-45
2021/07/03 04:41:41;;;;;;;2.83;2.25;;;25.00;38.90;;;;;;4975167;28;20221;-45
2021/07/03 04:44:08;;;;;;;2.50;2.30;;;25.00;38.90;;;;;;4968520;28;20225;-44
2021/07/03 04:46:34;;;;;;;2.17;2.00;;;25.00;38.90;;;;;;4956228;29;20753;-45
2021/07/03 04:49:00;;;;;;;2.30;2.10;;;25.00;38.90;;;;;;4958304;28;20626;-43
2021/07/03 04:51:27;;;;;;;2.47;2.33;;;25.00;38.90;;;;;;4971972;28;20688;-44
2021/07/03 04:53:53;;;;;;;2.40;2.20;;;25.00;38.90;;;;;;4970256;28;20853;-43
2021/07/03 04:56:20;;;;;;;2.40;2.20;;;25.00;39.00;;;;;;4970608;28;20606;-43
2021/07/03 04:58:46;;;;;;;2.42;2.22;;;25.00;39.00;;;;;;4971679;28;20571;-46
2021/07/03 05:01:13;;;;;;;2.50;2.30;;;25.00;39.00;;;;;;4974499;28;20601;-48
2021/07/03 05:03:39;;;;;;;2.40;2.20;;;25.00;39.00;;;;;;4973950;28;20232;-46
2021/07/03 05:06:06;;;;;;;2.47;2.28;;;25.00;39.00;;;;;;4973142;28;20599;-44
2021/07/03 05:08:32;;;;;;;2.35;2.25;;;25.00;39.00;;;;;;4975237;28;20283;-45
2021/07/03 05:10:58;;;;;;;2.40;2.20;;;25.00;39.00;;;;;;4974303;28;20234;-46
2021/07/03 05:13:25;;;;;;;2.67;2.47;;;25.00;39.00;;;;;;4974366;28;20299;-49
2021/07/03 05:15:52;;;;;;;2.47;2.28;;;25.00;39.00;;;;;;4968812;28;20201;-48
2021/07/03 05:18:19;;;;;;;2.47;2.28;;;25.00;39.00;;;;;;4974637;28;20209;-49
2021/07/03 05:20:45;;;;;;;2.50;2.30;;;24.90;38.90;;;;;;4967471;28;20240;-49
2021/07/03 05:23:12;;;;;;;2.10;2.00;;;25.00;39.00;;;;;;4973507;28;20566;-53
2021/07/03 05:25:40;;;;;;;2.88;2.42;;;25.00;39.00;;;;;;4973988;28;20570;-45
2021/07/03 05:28:06;;;;;;;2.72;2.42;;;25.00;39.00;;;;;;4974247;28;20690;-50
2021/07/03 05:30:33;;;;;;;2.50;2.30;;;25.00;39.00;;;;;;4973008;28;20227;-47
2021/07/03 05:32:59;;;;;;;2.72;2.17;;;25.00;39.70;;;;;;4973536;28;20299;-49
2021/07/03 05:35:26;;;;;;;2.50;2.30;;;25.00;39.00;;;;;;4968561;28;20214;-50
2021/07/03 05:37:52;;;;;;;2.50;2.30;;;25.00;39.00;;;;;;4974372;28;20283;-49
2021/07/03 05:40:19;;;;;;;2.47;2.20;;;25.00;39.00;;;;;;4973921;28;20794;-46
2021/07/03 05:42:45;;;;;;;2.58;2.38;;;25.00;39.00;;;;;;4973740;28;20701;-43
2021/07/03 05:45:14;;;;;;;2.95;2.38;;;25.00;39.00;;;;;;4973600;28;20562;-46
2021/07/03 05:47:40;;;;;;;2.10;2.00;;;25.00;39.00;;;;;;4974279;28;20209;-45
2021/07/03 05:50:06;;;;;;;2.38;2.17;;;25.00;39.00;;;;;;4973605;28;20219;-45
2021/07/03 05:52:33;;;;;;;2.58;2.38;;;25.00;39.00;;;;;;4973680;28;20210;-47
2021/07/03 05:54:59;;;;;;;2.55;2.35;;;25.00;39.00;;;;;;4973812;28;20193;-55
2021/07/03 05:57:28;;;;;;;2.40;2.20;;;25.00;39.00;;;;;;4973321;28;20285;-45
2021/07/03 05:59:54;;;;;;;2.10;2.00;;;25.00;39.00;;;;;;4974208;28;20506;-47
2021/07/03 06:02:21;;;;;;;2.42;2.17;;;25.00;39.70;;;;;;4972541;28;20588;-45
2021/07/03 06:04:47;;;;;;;2.22;2.03;;;25.00;39.00;;;;;;4972424;28;20555;-46
2021/07/03 06:07:13;;;;;;;2.00;1.90;;;25.00;39.00;;;;;;4973240;28;20251;-50
2021/07/03 06:09:40;;;;;;;2.35;2.15;;;25.00;39.00;;;;;;4973645;28;20289;-44
2021/07/03 06:12:06;;;;;;;1.92;1.83;;;25.00;39.00;;;;;;4973230;28;20236;-45
2021/07/03 06:14:33;;;;;;;2.53;2.33;;;25.00;39.00;;;;;;4972703;28;20197;-46
2021/07/03 06:16:59;;;;;;;2.40;2.20;;;25.00;39.00;;;;;;4972982;28;20209;-49
2021/07/03 06:19:26;;;;;;;2.28;2.08;;;25.00;39.00;;;;;;4973607;28;20209;-47
2021/07/03 06:21:52;;;;;;;2.30;2.10;;;25.00;39.00;;;;;;4973332;28;20244;-53
2021/07/03 06:24:19;;;;;;;2.20;2.00;;;25.00;39.00;;;;;;4972752;28;20240;-48
2021/07/03 06:26:45;;;;;;;2.63;2.42;;;25.00;39.00;;;;;;4973081;28;20200;-49
2021/07/03 06:29:11;;;;;;;2.17;1.98;;;25.00;39.00;;;;;;4973130;28;20200;-46
2021/07/03 06:31:38;;;;;;;2.28;2.08;;;25.00;38.90;;;;;;4972633;28;20232;-46
2021/07/03 06:34:04;;;;;;;2.40;2.20;;;25.00;39.00;;;;;;4970726;28;20656;-44
2021/07/03 06:36:31;;;;;;;2.17;1.98;;;25.00;39.00;;;;;;4972943;28;20675;-53
2021/07/03 06:38:57;;;;;;;2.47;2.28;;;25.00;39.00;;;;;;4972491;28;20666;-45
2021/07/03 06:41:24;;;;;;;2.38;2.17;;;25.00;39.00;;;;;;4972689;28;20233;-49
2021/07/03 06:43:50;;;;;;;2.63;2.22;;;25.00;39.60;;;;;;4972613;28;20232;-45
2021/07/03 06:46:17;;;;;;;2.50;2.30;;;25.00;39.00;;;;;;4968592;28;20197;-49
2021/07/03 06:48:43;;;;;;;2.80;2.60;;;25.00;39.00;;;;;;4968070;28;20618;-50
2021/07/03 06:51:10;;;;;;;3.72;2.33;;;25.00;38.90;;;;;;4970564;28;20264;-45
2021/07/03 06:53:36;;;;;;;3.38;3.08;;;25.00;38.80;;;;;;4981422;28;20546;-49
2021/07/03 06:56:03;;;;;;;3.67;3.30;;;25.00;38.10;;;;;;4966092;28;20582;-50
2021/07/03 06:58:29;;;;;;;4.07;3.55;;;24.90;37.30;;;;;;4967259;28;20542;-51
2021/07/03 07:00:56;;;;;;;3.75;3.45;;;24.80;37.00;;;;;;4970885;28;20227;-46
2021/07/03 07:03:22;;;;;;;4.30;3.70;;;24.80;36.40;;;;;;4980747;28;20263;-50
2021/07/03 07:05:48;;;;;;;4.75;3.72;;;24.80;35.40;;;;;;4974626;28;20215;-49
2021/07/03 07:08:15;;;;;;;4.30;3.88;;;24.80;35.80;;;;;;4972189;28;20689;-48
2021/07/03 07:10:42;;;;;;;4.82;4.18;;;24.80;35.20;;;;;;4971741;28;20307;-46
2021/07/03 07:13:09;;;;;;;4.32;3.70;;;24.70;35.50;;;;;;4971651;28;20208;-45
2021/07/03 07:15:35;;;;;;;3.90;3.60;;;24.70;35.50;;;;;;4971984;28;20664;-52
2021/07/03 07:18:02;;;;;;;3.47;3.17;;;24.70;34.80;;;;;;4970680;28;20570;-44
2021/07/03 07:20:28;;;;;;;4.82;4.32;;;24.70;34.80;;;;;;4969789;28;20216;-43
2021/07/03 07:22:55;;;;;;;4.45;4.05;;;24.70;34.40;;;;;;4967207;28;20235;-49
2021/07/03 07:25:21;;;;;;;4.80;3.60;;;24.60;34.00;;;;;;4971845;28;20214;-46
2021/07/03 07:27:47;;;;;;;6.28;4.60;;;24.60;34.80;;;;;;4972236;28;20202;-44
2021/07/03 07:30:14;;;;;;;6.28;5.45;;;24.70;35.00;;;;;;4970953;28;20216;-44
2021/07/03 07:32:40;;;;;;;5.72;4.90;;;24.70;34.60;;;;;;4971986;28;20222;-48
2021/07/03 07:35:07;;;;;;;6.82;4.53;;;24.70;34.30;;;;;;4971905;28;20203;-45
2021/07/03 07:37:33;;;;;;;4.90;4.35;;;24.80;34.20;;;;;;4972030;28;20200;-47
2021/07/03 07:40:00;;;;;;;6.93;4.65;;;24.80;34.20;;;;;;4957428;28;20229;-44
2021/07/03 07:42:26;;;;;;;5.05;4.30;;;24.70;33.50;;;;;;4956952;28;20219;-43
2021/07/03 07:44:53;;;;;;;6.97;4.93;;;24.70;33.80;;;;;;4968736;28;20312;-45
2021/07/03 07:47:19;;;;;;;7.63;5.13;;;24.50;34.90;;;;;;4971471;28;20233;-46
2021/07/03 07:49:46;;;;;;;6.25;5.07;;;24.20;35.00;;;;;;4976276;28;20231;-46
2021/07/03 07:52:12;;;;;;;5.68;4.68;;;24.20;36.70;;;;;;4975865;28;20206;-48
2021/07/03 07:54:39;;;;;;;9.52;4.50;;;24.40;37.50;;;;;;4975452;28;20210;-48
2021/07/03 07:57:05;;;;;;;10.02;4.53;;;24.50;36.50;;;;;;4975188;28;20200;-47
2021/07/03 07:59:32;;;;;;;5.03;3.92;;;24.60;36.50;;;;;;4975127;28;20220;-48
2021/07/03 08:01:58;;;;;;;8.55;5.00;;;24.60;36.80;;;;;;4973792;28;20204;-48
2021/07/03 08:04:24;;;;;;;10.63;5.88;;;24.60;38.10;;;;;;4975290;28;20235;-43
2021/07/03 08:06:51;;;;;;;6.28;4.55;;;24.60;39.60;;;;;;4967331;28;20208;-44
2021/07/03 08:09:17;;;;;;;9.38;5.60;;;24.60;39.30;;;;;;4956325;28;20231;-46
2021/07/03 08:11:44;;;;;;;7.55;4.80;;;24.50;38.10;;;;;;4974760;28;20699;-47
2021/07/03 08:14:10;;;;;;;8.55;5.50;;;24.20;36.80;;;;;;4975382;28;20247;-50
2021/07/03 08:16:37;;;;;;;10.65;5.20;;;24.00;36.10;;;;;;4974965;28;20720;-47
2021/07/03 08:19:03;;;;;;;7.05;5.80;;;23.50;34.90;;;;;;4972437;28;20228;-47
2021/07/03 08:21:30;;;;;;;6.38;4.88;;;23.10;38.50;;;;;;4974712;28;20212;-43
2021/07/03 08:23:56;;;;;;;5.35;4.72;;;22.50;35.50;;;;;;4974484;28;20235;-43
2021/07/03 08:26:22;;;;;;;5.68;4.60;;;22.50;36.80;;;;;;4974673;28;21694;-47
2021/07/03 08:28:49;;;;;;;7.25;4.68;;;23.10;39.10;;;;;;4974870;28;20231;-48
2021/07/03 08:31:16;;;;;;;4.78;4.35;;;23.50;38.40;;;;;;4975024;28;20312;-44
2021/07/03 08:33:42;;;;;;;5.13;4.63;;;23.60;38.00;;;;;;4974312;28;20727;-46
2021/07/03 08:36:08;;;;;;;5.80;5.07;;;23.70;34.90;;;;;;4975236;28;20228;-44
2021/07/03 08:38:35;;;;;;;6.63;4.78;;;23.00;34.30;;;;;;4973997;28;20223;-44
2021/07/03 08:41:01;;;;;;;6.07;5.38;;;22.30;35.20;;;;;;4970417;28;20235;-57
2021/07/03 08:43:28;;;;;;;4.45;4.05;;;22.70;37.00;;;;;;4953980;29;20318;-47
2021/07/03 08:45:54;;;;;;;4.85;4.32;;;23.20;37.40;;;;;;4959498;28;20596;-48
2021/07/03 08:48:21;;;;;;;5.25;4.68;;;23.50;35.60;;;;;;4974284;28;20228;-45
2021/07/03 08:50:47;;;;;;;5.57;4.10;;;23.40;35.70;;;;;;4974164;28;20319;-51
2021/07/03 08:53:14;;;;;;;6.53;4.90;;;23.70;36.60;;;;;;4974613;28;20210;-53
2021/07/03 08:55:40;;;;;;;5.32;4.82;;;23.50;35.30;;;;;;4974324;28;20613;-46
2021/07/03 08:58:08;;;;;;;5.78;4.30;;;23.70;36.60;;;;;;4971337;28;20227;-45
2021/07/03 09:00:35;;;;;;;4.47;4.07;;;23.70;35.70;;;;;;4965750;28;20669;-50
2021/07/03 09:03:01;;;;;;;4.53;4.13;;;23.90;36.80;;;;;;4973901;28;20212;-49
2021/07/03 09:05:29;;;;;;;4.75;4.20;;;24.00;36.80;;;;;;4969132;28;20298;-51
2021/07/03 09:07:56;;;;;;;4.50;4.10;;;24.10;36.90;;;;;;4974266;28;20219;-48
2021/07/03 09:10:22;;;;;;;4.00;3.60;;;24.20;37.10;;;;;;4974964;28;20649;-46
2021/07/03 09:12:48;;;;;;;4.30;3.90;;;24.30;37.30;;;;;;4973259;28;20571;-45
2021/07/03 09:15:15;;;;;;;4.00;3.60;;;24.40;37.20;;;;;;4973536;28;20235;-45
2021/07/03 09:17:41;;;;;;;3.95;3.65;;;24.40;37.30;;;;;;4968782;28;20211;-47
2021/07/03 09:20:08;;;;;;;4.40;4.00;;;24.40;37.00;;;;;;4973637;28;20341;-43
2021/07/03 09:22:34;;;;;;;4.25;3.85;;;24.50;37.10;;;;;;4967544;28;20211;-42
2021/07/03 09:25:01;;;;;;;4.00;3.70;;;24.50;37.10;;;;;;4973423;28;20228;-45
2021/07/03 09:27:28;;;;;;;3.60;3.30;;;24.60;37.10;;;;;;4965946;28;20208;-42
2021/07/03 09:29:55;;;;;;;5.25;3.78;;;24.60;37.00;;;;;;4973710;28;20316;-42
2021/07/03 09:32:21;;;;;;;4.40;4.00;;;24.60;37.00;;;;;;4973419;28;20267;-42
2021/07/03 09:34:48;;;;;;;4.45;4.05;;;24.60;37.00;;;;;;4972839;28;20218;-46
2021/07/03 09:37:16;;;;;;;4.75;4.35;;;24.60;37.90;;;;;;4973738;28;20216;-45
2021/07/03 09:39:43;;;;;;;3.70;3.40;;;24.70;37.40;;;;;;4973546;28;20287;-43
2021/07/03 09:42:09;;;;;;;4.18;3.83;;;24.70;37.10;;;;;;4973409;28;20215;-45
2021/07/03 09:44:36;;;;;;;4.38;3.47;;;24.70;37.30;;;;;;4972396;28;20228;-48
2021/07/03 09:47:02;;;;;;;4.40;4.00;;;24.70;37.10;;;;;;4973120;28;20231;-49
2021/07/03 09:49:29;;;;;;;4.85;3.72;;;24.70;37.50;;;;;;4972668;28;20235;-47
2021/07/03 09:51:55;;;;;;;4.57;4.03;;;24.70;37.70;;;;;;4961899;28;20371;-50
2021/07/03 09:54:22;;;;;;;4.40;3.90;;;24.70;37.60;;;;;;4956080;28;20613;-53
2021/07/03 09:56:58;;;;;;;4.13;3.72;;;24.80;37.80;;;;;;4973135;28;20231;-45
2021/07/03 09:59:24;;;;;;;4.15;3.72;;;24.80;37.90;;;;;;4964402;28;20730;-43
2021/07/03 10:01:51;;;;;;;4.35;3.47;;;24.80;38.10;;;;;;4972252;28;20201;-48
2021/07/03 10:04:17;;;;;;;3.65;3.35;;;24.80;38.10;;;;;;4968714;28;20228;-50
2021/07/03 10:06:43;;;;;;;3.50;3.30;;;24.80;38.20;;;;;;4973040;28;20208;-46
2021/07/03 10:09:10;;;;;;;3.58;3.28;;;24.80;38.30;;;;;;4973067;28;20225;-44
2021/07/03 10:11:36;;;;;;;4.30;4.00;;;24.80;38.30;;;;;;4972386;28;20311;-43
2021/07/03 10:14:03;;;;;;;4.45;3.67;;;24.80;38.30;;;;;;4965997;28;20201;-44
2021/07/03 10:16:30;;;;;;;4.18;3.88;;;24.80;38.30;;;;;;4971227;28;20299;-44
2021/07/03 10:18:56;;;;;;;5.78;4.20;;;24.80;38.60;;;;;;4972255;28;20299;-46
2021/07/03 10:21:23;;;;;;;3.42;3.13;;;24.90;38.00;;;;;;4971505;28;20215;-51
2021/07/03 10:23:50;;;;;;;4.40;4.00;;;24.90;37.80;;;;;;4974948;28;20220;-46
2021/07/03 10:26:16;;;;;;;4.57;3.97;;;24.90;37.90;;;;;;4973228;28;20646;-45
2021/07/03 10:28:43;;;;;;;4.55;3.75;;;24.90;37.90;;;;;;4974586;28;20228;-45
2021/07/03 10:31:09;;;;;;;4.13;3.72;;;24.90;38.10;;;;;;4969571;28;20234;-44
2021/07/03 10:33:36;;;;;;;3.75;3.45;;;24.90;37.60;;;;;;4968915;28;20292;-44
2021/07/03 10:36:03;;;;;;;4.82;3.50;;;24.90;37.80;;;;;;4970016;28;20208;-52
2021/07/03 10:38:30;;;;;;;3.55;3.25;;;24.90;37.90;;;;;;4972817;28;20732;-43
2021/07/03 10:40:57;;;;;;;3.97;3.58;;;24.90;38.00;;;;;;4971791;28;20276;-48
2021/07/03 10:43:23;;;;;;;4.03;3.72;;;24.90;38.30;;;;;;4971645;28;20200;-48
2021/07/03 10:45:49;;;;;;;5.70;4.10;;;24.90;38.10;;;;;;4980399;28;20207;-48
2021/07/03 10:48:16;;;;;;;5.13;3.90;;;24.90;38.30;;;;;;4984683;28;20200;-48
2021/07/03 10:50:43;;;;;;;10.90;4.20;;;24.90;38.30;;;;;;4978634;28;20211;-49
2021/07/03 10:53:09;;;;;;;6.40;4.28;;;24.90;38.90;;;;;;4987080;28;20294;-45
2021/07/03 10:55:35;;;;;;;8.63;4.95;;;24.90;38.90;;;;;;4974762;28;20208;-43
2021/07/03 10:58:02;;;;;;;9.70;5.65;;;24.90;38.90;;;;;;4977320;28;20204;-43
2021/07/03 11:00:28;;;;;;;11.43;6.03;;;24.90;39.50;;;;;;4992093;28;20230;-43
2021/07/03 11:02:56;;;;;;;12.00;6.35;;;25.00;39.20;;;;;;4987010;28;20205;-49
2021/07/03 11:05:23;;;;;;;12.68;7.15;;;25.00;39.40;;;;;;4979960;28;20232;-44
2021/07/03 11:07:50;;;;;;;11.90;5.72;;;25.00;39.00;;;;;;4980634;28;20347;-45
2021/07/03 11:10:16;;;;;;;10.55;6.15;;;25.00;39.00;;;;;;4974586;28;20319;-43
2021/07/03 11:12:43;;;;;;;9.80;6.45;;;25.00;39.80;;;;;;4967751;28;20218;-42
2021/07/03 11:15:09;;;;;;;10.77;6.57;;;25.00;39.00;;;;;;4971909;28;20267;-43
2021/07/03 11:17:36;;;;;;;11.88;6.13;;;25.00;39.00;;;;;;4971363;28;20211;-51
2021/07/03 11:20:02;;;;;;;13.05;6.13;;;25.00;39.00;;;;;;4971974;28;20217;-49
2021/07/03 11:22:29;;;;;;;14.15;6.90;;;25.00;39.20;;;;;;4971208;28;20193;-45
2021/07/03 11:24:55;;;;;;;9.20;5.85;;;25.00;39.10;;;;;;4971873;28;20803;-46
2021/07/03 11:27:21;;;;;;;10.98;5.95;;;25.00;39.70;;;;;;4977021;28;20200;-47
2021/07/03 11:29:48;;;;;;;10.55;6.20;;;25.00;40.00;;;;;;4985709;28;20763;-42
2021/07/03 11:32:14;;;;;;;9.05;5.35;;;25.00;40.00;;;;;;4975463;28;20211;-54
2021/07/03 11:34:41;;;;;;;13.65;5.47;;;25.00;39.90;;;;;;4987821;28;20226;-49
2021/07/03 11:37:07;;;;;;;11.02;5.72;;;25.00;39.50;;;;;;4972122;28;20385;-45
2021/07/03 11:39:34;;;;;;;7.28;4.95;;;25.00;39.50;;;;;;4975419;28;20311;-48
2021/07/03 11:42:00;;;;;;;8.73;5.30;;;25.00;39.30;;;;;;4978486;28;20211;-43
2021/07/03 11:44:27;;;;;;;8.77;4.82;;;25.00;39.30;;;;;;4980007;28;20235;-48
2021/07/03 11:46:53;;;;;;;9.75;5.35;;;25.00;39.10;;;;;;4972193;28;20205;-45
2021/07/03 11:49:20;;;;;;;9.35;5.57;;;25.00;39.00;;;;;;4971917;28;20764;-48
2021/07/03 11:51:46;;;;;;;8.90;5.00;;;25.00;39.10;;;;;;4976816;28;20203;-43
2021/07/03 11:54:12;;;;;;;7.35;5.68;;;25.00;39.00;;;;;;4970616;28;20208;-47
2021/07/03 11:56:39;;;;;;;10.50;5.30;;;25.00;39.10;;;;;;4971558;28;20227;-44
2021/07/03 11:59:06;;;;;;;7.20;4.95;;;25.00;39.70;;;;;;4972481;28;20275;-45
2021/07/03 12:01:32;;;;;;;8.18;4.40;;;25.10;40.00;;;;;;4966961;28;20209;-46
2021/07/03 12:03:58;;;;;;;7.38;5.30;;;25.00;40.50;;;;;;4961814;28;20223;-44
2021/07/03 12:06:25;;;;;;;7.82;5.07;;;25.00;40.10;;;;;;4963761;28;20320;-49
2021/07/03 12:08:52;;;;;;;6.15;4.55;;;25.00;40.00;;;;;;4975877;28;20231;-43
2021/07/03 12:11:18;;;;;;;4.93;4.03;;;25.10;40.10;;;;;;4960388;28;20628;-48
2021/07/03 12:13:45;;;;;;;8.23;4.63;;;25.10;39.80;;;;;;4952224;28;20208;-54
2021/07/03 12:16:11;;;;;;;8.75;4.80;;;25.10;39.50;;;;;;4969733;28;20201;-44
2021/07/03 12:18:38;;;;;;;9.13;4.55;;;25.10;39.50;;;;;;4971616;28;20224;-43
2021/07/03 12:21:04;;;;;;;7.25;4.60;;;25.10;39.30;;;;;;4971384;28;20295;-49
2021/07/03 12:23:31;;;;;;;5.57;3.70;;;25.10;39.10;;;;;;4971374;28;20340;-50
2021/07/03 12:25:57;;;;;;;6.32;4.25;;;25.10;39.00;;;;;;4971355;28;20267;-49
2021/07/03 12:28:24;;;;;;;5.22;4.20;;;25.10;39.00;;;;;;4970950;28;20505;-49
2021/07/03 12:30:50;;;;;;;5.72;4.30;;;25.00;39.00;;;;;;4973606;28;20561;-48
2021/07/03 12:33:17;;;;;;;6.35;4.60;;;25.10;39.00;;;;;;4974806;28;20303;-44
2021/07/03 12:35:43;;;;;;;7.45;4.57;;;25.00;39.00;;;;;;4975225;28;20209;-50
2021/07/03 12:38:09;;;;;;;5.72;4.03;;;25.10;39.00;;;;;;4975175;28;20231;-45
2021/07/03 12:40:36;;;;;;;5.45;3.90;;;25.10;39.00;;;;;;4972781;28;20291;-45